Time,TemperatureF,DewpointF,PressureIn,WindDirection,WindDirectionDegrees,WindSpeedMPH,WindSpeedGustMPH,Humidity,HourlyPrecipIn,Conditions,Clouds,dailyrainin,SolarRadiationWatts/m^2,SoftwareType,DateUTC
2013-03-19 00:00:00,32.4,29.8,30.09,East,96,12.0,15.0,90,0.05,,,0.13,0.0,meteohub,2013-03-19 04:00:00,
2013-03-19 00:01:00,32.2,29.7,30.09,East,98,6.0,15.0,90,0.06,,,0.13,0.0,meteohub,2013-03-19 04:01:00,
2013-03-19 00:02:00,32.2,29.7,30.10,ESE,105,9.0,15.0,90,0.06,,,0.13,0.0,meteohub,2013-03-19 04:02:00,
2013-03-19 00:07:00,32.2,29.7,30.09,ENE,57,5.0,14.0,90,0.06,,,0.13,0.0,meteohub,2013-03-19 04:07:00,
2013-03-19 00:12:00,32.2,29.7,30.08,East,88,10.0,16.0,90,0.05,,,0.13,0.0,meteohub,2013-03-19 04:12:00,
2013-03-19 00:17:00,32.4,29.8,30.08,East,88,6.0,16.0,90,0.05,,,0.14,0.0,meteohub,2013-03-19 04:17:00,
2013-03-19 00:22:00,32.4,29.8,30.08,East,98,5.0,16.0,90,0.05,,,0.14,0.0,meteohub,2013-03-19 04:22:00,
2013-03-19 00:27:00,32.4,29.8,30.07,East,90,11.0,13.0,90,0.06,,,0.15,0.0,meteohub,2013-03-19 04:27:00,
2013-03-19 00:32:00,32.4,29.8,30.06,ENE,74,7.0,13.0,90,0.05,,,0.15,0.0,meteohub,2013-03-19 04:32:00,
2013-03-19 00:37:00,32.5,30.0,30.06,ENE,69,5.0,14.0,90,0.05,,,0.15,0.0,meteohub,2013-03-19 04:37:00,
2013-03-19 00:42:00,32.7,30.2,30.05,East,79,10.0,14.0,90,0.05,,,0.15,0.0,meteohub,2013-03-19 04:42:00,
2013-03-19 00:47:00,32.7,30.2,30.05,ENE,74,12.0,16.0,90,0.06,,,0.16,0.0,meteohub,2013-03-19 04:47:00,
2013-03-19 00:53:00,32.7,30.2,30.05,ENE,63,7.0,16.0,90,0.05,,,0.17,0.0,meteohub,2013-03-19 04:53:00,
2013-03-19 00:58:00,32.7,30.2,30.04,ESE,103,8.0,16.0,90,0.04,,,0.17,0.0,meteohub,2013-03-19 04:58:00,
2013-03-19 01:03:00,32.7,30.2,30.04,ESE,103,6.0,14.0,90,0.04,,,0.17,0.0,meteohub,2013-03-19 05:03:00,
2013-03-19 01:08:00,32.7,30.2,30.04,NNE,26,14.0,17.0,90,0.05,,,0.18,0.0,meteohub,2013-03-19 05:08:00,
2013-03-19 01:13:00,32.9,30.4,30.04,ENE,61,4.0,17.0,90,0.06,,,0.19,0.0,meteohub,2013-03-19 05:13:00,
2013-03-19 01:18:00,33.1,30.4,30.03,East,86,11.0,17.0,90,0.06,,,0.20,0.0,meteohub,2013-03-19 05:18:00,
2013-03-19 01:23:00,33.3,30.6,30.03,ENE,70,5.0,14.0,90,0.07,,,0.20,0.0,meteohub,2013-03-19 05:23:00,
2013-03-19 01:28:00,33.4,31.1,30.02,ENE,74,6.0,12.0,91,0.06,,,0.21,0.0,meteohub,2013-03-19 05:28:00,
2013-03-19 01:33:00,33.4,30.7,30.02,ESE,109,7.0,17.0,90,0.08,,,0.23,0.0,meteohub,2013-03-19 05:33:00,
2013-03-19 01:38:00,33.4,30.7,30.02,East,86,5.0,17.0,90,0.09,,,0.24,0.0,meteohub,2013-03-19 05:38:00,
2013-03-19 01:43:00,33.6,31.3,30.02,ENE,69,5.0,17.0,91,0.11,,,0.26,0.0,meteohub,2013-03-19 05:43:00,
2013-03-19 01:48:00,34.0,31.6,30.02,NE,49,5.0,17.0,91,0.11,,,0.28,0.0,meteohub,2013-03-19 05:48:00,
2013-03-19 01:53:00,34.0,31.6,30.01,ENE,62,6.0,17.0,91,0.12,,,0.29,0.0,meteohub,2013-03-19 05:53:00,
2013-03-19 01:58:00,33.8,31.5,30.01,NE,41,8.0,15.0,91,0.13,,,0.30,0.0,meteohub,2013-03-19 05:58:00,
2013-03-19 02:04:00,33.8,31.5,30.00,ESE,121,6.0,15.0,91,0.15,,,0.32,0.0,meteohub,2013-03-19 06:04:00,
2013-03-19 02:09:00,34.2,31.8,29.99,NE,44,8.0,18.0,91,0.14,,,0.32,0.0,meteohub,2013-03-19 06:09:00,
2013-03-19 02:14:00,34.2,31.8,29.99,ESE,103,13.0,18.0,91,0.14,,,0.33,0.0,meteohub,2013-03-19 06:14:00,
2013-03-19 02:19:00,33.8,31.5,29.98,East,87,14.0,18.0,91,0.15,,,0.35,0.0,meteohub,2013-03-19 06:19:00,
2013-03-19 02:24:00,34.0,31.6,29.98,ENE,71,6.0,18.0,91,0.14,,,0.35,0.0,meteohub,2013-03-19 06:24:00,
2013-03-19 02:29:00,34.0,31.6,29.98,ESE,104,0.0,18.0,91,0.14,,,0.36,0.0,meteohub,2013-03-19 06:29:00,
2013-03-19 02:34:00,34.0,31.6,29.97,SE,142,13.0,18.0,91,0.12,,,0.36,0.0,meteohub,2013-03-19 06:34:00,
2013-03-19 02:40:00,33.8,31.5,29.96,East,94,9.0,13.0,91,0.12,,,0.37,0.0,meteohub,2013-03-19 06:40:00,
2013-03-19 02:45:00,34.0,31.6,29.96,ENE,65,6.0,19.0,91,0.12,,,0.39,0.0,meteohub,2013-03-19 06:45:00,
2013-03-19 02:50:00,33.8,31.5,29.95,NE,42,7.0,19.0,91,0.11,,,0.40,0.0,meteohub,2013-03-19 06:50:00,
2013-03-19 02:55:00,34.0,31.6,29.95,East,80,7.0,19.0,91,0.10,,,0.41,0.0,meteohub,2013-03-19 06:55:00,
2013-03-19 03:00:00,34.2,31.8,29.95,East,82,4.0,19.0,91,0.11,,,0.43,0.0,meteohub,2013-03-19 07:00:00,
2013-03-19 03:05:00,34.0,31.6,29.95,East,80,4.0,15.0,91,0.11,,,0.44,0.0,meteohub,2013-03-19 07:05:00,
2013-03-19 03:10:00,34.2,31.8,29.96,ENE,66,6.0,14.0,91,0.11,,,0.45,0.0,meteohub,2013-03-19 07:10:00,
2013-03-19 03:15:00,34.0,31.6,29.96,East,97,7.0,13.0,91,0.10,,,0.45,0.0,meteohub,2013-03-19 07:15:00,
2013-03-19 03:20:00,34.3,32.0,29.96,ESE,115,4.0,13.0,91,0.11,,,0.46,0.0,meteohub,2013-03-19 07:20:00,
2013-03-19 03:25:00,34.2,31.8,29.96,East,79,6.0,17.0,91,0.10,,,0.46,0.0,meteohub,2013-03-19 07:25:00,
2013-03-19 03:30:00,34.0,31.6,29.96,ENE,70,7.0,17.0,91,0.11,,,0.47,0.0,meteohub,2013-03-19 07:30:00,
2013-03-19 03:36:00,34.2,31.8,29.95,East,92,4.0,17.0,91,0.10,,,0.47,0.0,meteohub,2013-03-19 07:36:00,
2013-03-19 03:41:00,34.2,31.8,29.94,ENE,63,10.0,14.0,91,0.10,,,0.48,0.0,meteohub,2013-03-19 07:41:00,
2013-03-19 03:46:00,34.3,32.2,29.94,East,90,7.0,14.0,92,0.09,,,0.48,0.0,meteohub,2013-03-19 07:46:00,
2013-03-19 03:52:00,34.2,31.8,29.94,East,92,5.0,16.0,91,0.09,,,0.49,0.0,meteohub,2013-03-19 07:52:00,
2013-03-19 03:57:00,34.2,31.8,29.94,ENE,65,5.0,16.0,91,0.07,,,0.49,0.0,meteohub,2013-03-19 07:57:00,
2013-03-19 04:02:00,34.2,31.8,29.93,ENE,70,2.0,14.0,91,0.05,,,0.49,0.0,meteohub,2013-03-19 08:02:00,
2013-03-19 04:07:00,34.3,32.2,29.93,East,99,9.0,18.0,92,0.06,,,0.50,0.0,meteohub,2013-03-19 08:07:00,
2013-03-19 04:12:00,34.3,32.2,29.92,ENE,63,5.0,18.0,92,0.05,,,0.50,0.0,meteohub,2013-03-19 08:12:00,
2013-03-19 04:17:00,34.2,32.0,29.91,East,87,11.0,18.0,92,0.06,,,0.51,0.0,meteohub,2013-03-19 08:17:00,
2013-03-19 04:22:00,34.2,32.0,29.91,East,88,10.0,21.0,92,0.05,,,0.51,0.0,meteohub,2013-03-19 08:22:00,
2013-03-19 04:27:00,34.9,33.1,29.91,NE,44,11.0,21.0,93,0.04,,,0.51,0.0,meteohub,2013-03-19 08:27:00,
2013-03-19 04:32:00,34.5,32.4,29.90,ENE,58,13.0,21.0,92,0.05,,,0.52,0.0,meteohub,2013-03-19 08:32:00,
2013-03-19 04:37:00,34.3,32.2,29.90,East,87,6.0,19.0,92,0.04,,,0.52,0.0,meteohub,2013-03-19 08:37:00,
2013-03-19 04:43:00,34.3,32.2,29.90,East,90,11.0,19.0,92,0.04,,,0.52,0.0,meteohub,2013-03-19 08:43:00,
2013-03-19 04:48:00,34.7,32.5,29.89,ESE,107,7.0,19.0,92,0.04,,,0.52,0.0,meteohub,2013-03-19 08:48:00,
2013-03-19 04:53:00,34.5,32.4,29.89,ENE,74,5.0,20.0,92,0.03,,,0.52,0.0,meteohub,2013-03-19 08:53:00,
2013-03-19 04:58:00,34.5,32.4,29.88,ESE,105,6.0,20.0,92,0.04,,,0.53,0.0,meteohub,2013-03-19 08:58:00,
2013-03-19 05:03:00,34.7,32.5,29.88,NE,36,23.0,23.0,92,0.04,,,0.53,0.0,meteohub,2013-03-19 09:03:00,
2013-03-19 05:08:00,34.7,32.5,29.88,ENE,72,10.0,23.0,92,0.03,,,0.53,0.0,meteohub,2013-03-19 09:08:00,
2013-03-19 05:14:00,34.9,32.7,29.88,ENE,63,5.0,23.0,92,0.03,,,0.53,0.0,meteohub,2013-03-19 09:14:00,
2013-03-19 05:19:00,34.7,32.5,29.89,NE,40,5.0,23.0,92,0.03,,,0.54,0.0,meteohub,2013-03-19 09:19:00,
2013-03-19 05:24:00,34.7,32.5,29.89,ENE,68,15.0,23.0,92,0.03,,,0.54,0.0,meteohub,2013-03-19 09:24:00,
2013-03-19 05:29:00,34.9,32.7,29.88,ENE,71,6.0,19.0,92,0.03,,,0.54,0.0,meteohub,2013-03-19 09:29:00,
2013-03-19 05:34:00,35.1,32.9,29.88,East,94,11.0,19.0,92,0.02,,,0.54,0.0,meteohub,2013-03-19 09:34:00,
2013-03-19 05:39:00,34.9,32.7,29.87,NE,45,6.0,19.0,92,0.02,,,0.54,0.0,meteohub,2013-03-19 09:39:00,
2013-03-19 05:44:00,34.9,32.7,29.87,East,85,6.0,20.0,92,0.02,,,0.54,0.0,meteohub,2013-03-19 09:44:00,
2013-03-19 05:49:00,34.9,32.7,29.86,NNE,28,9.0,20.0,92,0.03,,,0.55,0.0,meteohub,2013-03-19 09:49:00,
2013-03-19 05:54:00,35.1,32.9,29.86,NE,39,5.0,19.0,92,0.03,,,0.55,0.0,meteohub,2013-03-19 09:54:00,
2013-03-19 05:59:00,35.1,32.9,29.86,East,80,7.0,21.0,92,0.02,,,0.55,0.0,meteohub,2013-03-19 09:59:00,
2013-03-19 06:04:00,35.1,32.9,29.86,NE,54,6.0,21.0,92,0.02,,,0.55,0.0,meteohub,2013-03-19 10:04:00,
2013-03-19 06:09:00,35.1,32.9,29.85,NE,48,2.0,21.0,92,0.02,,,0.55,0.0,meteohub,2013-03-19 10:09:00,
2013-03-19 06:15:00,35.2,33.1,29.86,NE,46,10.0,16.0,92,0.01,,,0.55,0.0,meteohub,2013-03-19 10:15:00,
2013-03-19 06:20:00,35.4,33.3,29.85,East,99,13.0,17.0,92,0.01,,,0.55,0.0,meteohub,2013-03-19 10:20:00,
2013-03-19 06:25:00,35.2,32.9,29.85,NE,52,7.0,19.0,91,0.01,,,0.55,0.0,meteohub,2013-03-19 10:25:00,
2013-03-19 06:30:00,35.2,32.9,29.84,NE,42,10.0,25.0,91,0.01,,,0.55,0.0,meteohub,2013-03-19 10:30:00,
2013-03-19 06:35:00,36.0,33.8,29.84,East,92,7.0,25.0,92,0.01,,,0.55,0.0,meteohub,2013-03-19 10:35:00,
2013-03-19 06:40:00,35.6,33.4,29.84,ENE,65,5.0,25.0,92,0.01,,,0.55,0.0,meteohub,2013-03-19 10:40:00,
2013-03-19 06:45:00,35.4,33.3,29.83,ENE,73,12.0,20.0,92,0.00,,,0.55,0.0,meteohub,2013-03-19 10:45:00,
2013-03-19 06:50:00,35.4,33.3,29.83,SE,129,5.0,17.0,92,0.00,,,0.55,0.0,meteohub,2013-03-19 10:50:00,
2013-03-19 06:55:00,36.0,33.8,29.82,ENE,70,13.0,17.0,92,0.01,,,0.56,0.0,meteohub,2013-03-19 10:55:00,
2013-03-19 07:01:00,35.8,33.4,29.81,East,84,7.0,22.0,91,0.01,,,0.56,0.0,meteohub,2013-03-19 11:01:00,
2013-03-19 07:06:00,35.8,33.6,29.81,North,0,9.0,23.0,92,0.02,,,0.57,0.0,meteohub,2013-03-19 11:06:00,
2013-03-19 07:11:00,35.8,33.6,29.82,NNE,29,9.0,23.0,92,0.02,,,0.57,0.0,meteohub,2013-03-19 11:11:00,
2013-03-19 07:16:00,35.6,33.4,29.81,NNE,26,4.0,15.0,92,0.02,,,0.57,0.0,meteohub,2013-03-19 11:16:00,
2013-03-19 07:21:00,35.6,33.4,29.81,NE,44,8.0,18.0,92,0.02,,,0.57,0.0,meteohub,2013-03-19 11:21:00,
2013-03-19 07:26:00,35.8,33.6,29.81,NNE,32,9.0,18.0,92,0.02,,,0.57,0.0,meteohub,2013-03-19 11:26:00,
2013-03-19 07:31:00,36.0,33.8,29.80,ENE,57,13.0,15.0,92,0.02,,,0.57,5.0,meteohub,2013-03-19 11:31:00,
2013-03-19 07:36:00,35.8,33.6,29.80,NE,51,17.0,23.0,92,0.02,,,0.57,7.0,meteohub,2013-03-19 11:36:00,
2013-03-19 07:41:00,36.0,33.8,29.80,NNE,26,13.0,23.0,92,0.02,,,0.57,11.0,meteohub,2013-03-19 11:41:00,
2013-03-19 07:47:00,36.1,34.0,29.80,East,92,6.0,23.0,92,0.03,,,0.58,14.0,meteohub,2013-03-19 11:47:00,
2013-03-19 07:52:00,36.1,34.0,29.79,NNE,30,11.0,19.0,92,0.02,,,0.58,14.0,meteohub,2013-03-19 11:52:00,
2013-03-19 07:57:00,36.1,34.0,29.79,ENE,57,5.0,19.0,92,0.02,,,0.58,12.0,meteohub,2013-03-19 11:57:00,
2013-03-19 08:02:00,36.1,34.0,29.79,ENE,70,7.0,19.0,92,0.02,,,0.58,14.0,meteohub,2013-03-19 12:02:00,
2013-03-19 08:07:00,36.3,34.2,29.78,East,94,15.0,19.0,92,0.01,,,0.58,21.0,meteohub,2013-03-19 12:07:00,
2013-03-19 08:12:00,36.1,34.0,29.78,NE,38,2.0,19.0,92,0.01,,,0.58,25.0,meteohub,2013-03-19 12:12:00,
2013-03-19 08:17:00,36.1,34.0,29.78,ESE,120,6.0,21.0,92,0.01,,,0.58,35.0,meteohub,2013-03-19 12:17:00,
2013-03-19 08:22:00,36.7,34.5,29.78,NE,51,14.0,21.0,92,0.02,,,0.59,37.0,meteohub,2013-03-19 12:22:00,
2013-03-19 08:27:00,37.0,34.9,29.77,ENE,62,11.0,21.0,92,0.02,,,0.59,39.0,meteohub,2013-03-19 12:27:00,
2013-03-19 08:32:00,36.7,34.3,29.77,ENE,78,4.0,20.0,91,0.02,,,0.59,42.0,meteohub,2013-03-19 12:32:00,
2013-03-19 08:37:00,36.7,34.5,29.77,East,79,6.0,20.0,92,0.02,,,0.59,44.0,meteohub,2013-03-19 12:37:00,
2013-03-19 08:42:00,36.9,34.7,29.76,East,100,9.0,20.0,92,0.02,,,0.59,47.0,meteohub,2013-03-19 12:42:00,
2013-03-19 08:47:00,36.7,34.3,29.77,NNE,30,13.0,15.0,91,0.01,,,0.59,51.0,meteohub,2013-03-19 12:47:00,
2013-03-19 08:53:00,36.3,34.0,29.77,NNE,22,15.0,24.0,91,0.01,,,0.59,54.0,meteohub,2013-03-19 12:53:00,
2013-03-19 08:58:00,36.7,34.3,29.78,NNE,28,14.0,24.0,91,0.01,,,0.59,44.0,meteohub,2013-03-19 12:58:00,
2013-03-19 09:03:00,36.7,34.3,29.78,East,81,11.0,24.0,91,0.01,,,0.59,53.0,meteohub,2013-03-19 13:03:00,
2013-03-19 09:08:00,36.7,34.3,29.77,ENE,60,8.0,17.0,91,0.01,,,0.59,58.0,meteohub,2013-03-19 13:08:00,
2013-03-19 09:13:00,36.7,34.3,29.77,NNE,24,10.0,14.0,91,0.01,,,0.59,63.0,meteohub,2013-03-19 13:13:00,
2013-03-19 09:18:00,36.7,34.3,29.77,NNE,22,14.0,18.0,91,0.00,,,0.59,56.0,meteohub,2013-03-19 13:18:00,
2013-03-19 09:23:00,36.9,34.5,29.77,NE,50,6.0,18.0,91,0.00,,,0.59,63.0,meteohub,2013-03-19 13:23:00,
2013-03-19 09:28:00,37.0,34.7,29.77,NE,38,9.0,18.0,91,0.00,,,0.59,69.0,meteohub,2013-03-19 13:28:00,
2013-03-19 09:33:00,36.7,34.0,29.78,NNE,28,4.0,17.0,90,0.00,,,0.59,60.0,meteohub,2013-03-19 13:33:00,
2013-03-19 09:39:00,36.5,33.8,29.78,North,355,11.0,17.0,90,0.00,,,0.59,54.0,meteohub,2013-03-19 13:39:00,
2013-03-19 09:44:00,36.7,34.3,29.78,ENE,65,12.0,16.0,91,0.00,,,0.59,60.0,meteohub,2013-03-19 13:44:00,
2013-03-19 09:49:00,36.5,34.2,29.77,NNE,22,6.0,13.0,91,0.00,,,0.59,63.0,meteohub,2013-03-19 13:49:00,
2013-03-19 09:54:00,36.7,34.0,29.76,NE,36,5.0,12.0,90,0.00,,,0.59,69.0,meteohub,2013-03-19 13:54:00,
2013-03-19 09:59:00,36.9,34.5,29.76,NNE,22,6.0,12.0,91,0.00,,,0.59,79.0,meteohub,2013-03-19 13:59:00,
2013-03-19 10:04:00,36.9,34.5,29.76,North,5,12.0,15.0,91,0.00,,,0.59,86.0,meteohub,2013-03-19 14:04:00,
2013-03-19 10:10:00,36.9,34.5,29.75,NNE,12,8.0,15.0,91,0.00,,,0.59,111.0,meteohub,2013-03-19 14:10:00,
2013-03-19 10:15:00,36.9,34.2,29.74,NNE,32,16.0,17.0,90,0.00,,,0.59,121.0,meteohub,2013-03-19 14:15:00,
2013-03-19 10:20:00,37.4,35.1,29.74,NE,42,12.0,17.0,91,0.00,,,0.59,141.0,meteohub,2013-03-19 14:20:00,
2013-03-19 10:25:00,37.0,34.7,29.73,NE,45,12.0,17.0,91,0.00,,,0.59,172.0,meteohub,2013-03-19 14:25:00,
2013-03-19 10:30:00,37.0,34.7,29.73,ENE,65,5.0,17.0,91,0.00,,,0.59,199.0,meteohub,2013-03-19 14:30:00,
2013-03-19 10:35:00,37.2,34.9,29.72,NE,38,10.0,17.0,91,0.00,,,0.59,178.0,meteohub,2013-03-19 14:35:00,
2013-03-19 10:40:00,37.2,35.1,29.72,NE,44,20.0,20.0,92,0.00,,,0.59,174.0,meteohub,2013-03-19 14:40:00,
2013-03-19 10:46:00,37.2,35.1,29.72,North,9,5.0,20.0,92,0.00,,,0.59,172.0,meteohub,2013-03-19 14:46:00,
2013-03-19 10:51:00,37.2,35.1,29.72,ESE,121,5.0,20.0,92,0.00,,,0.59,135.0,meteohub,2013-03-19 14:51:00,
2013-03-19 10:56:00,37.8,36.0,29.72,NNE,30,9.0,20.0,93,0.00,,,0.59,121.0,meteohub,2013-03-19 14:56:00,
2013-03-19 11:01:00,37.6,35.4,29.73,NNE,30,12.0,14.0,92,0.00,,,0.59,128.0,meteohub,2013-03-19 15:01:00,
2013-03-19 11:07:00,37.6,35.4,29.72,NE,40,8.0,13.0,92,0.00,,,0.59,128.0,meteohub,2013-03-19 15:07:00,
2013-03-19 11:12:00,37.6,35.4,29.71,NE,38,6.0,13.0,92,0.00,,,0.59,107.0,meteohub,2013-03-19 15:12:00,
2013-03-19 11:17:00,37.8,35.6,29.70,NNE,30,12.0,18.0,92,0.00,,,0.59,123.0,meteohub,2013-03-19 15:17:00,
2013-03-19 11:22:00,37.6,35.4,29.70,NE,49,3.0,18.0,92,0.00,,,0.59,130.0,meteohub,2013-03-19 15:22:00,
2013-03-19 11:27:00,37.8,35.6,29.70,East,82,4.0,18.0,92,0.00,,,0.59,121.0,meteohub,2013-03-19 15:27:00,
2013-03-19 11:32:00,37.9,36.1,29.70,ENE,71,4.0,17.0,93,0.00,,,0.59,107.0,meteohub,2013-03-19 15:32:00,
2013-03-19 11:37:00,38.1,36.3,29.69,ENE,74,4.0,17.0,93,0.00,,,0.59,127.0,meteohub,2013-03-19 15:37:00,
2013-03-19 11:42:00,37.9,35.8,29.69,NNE,32,7.0,17.0,92,0.00,,,0.59,98.0,meteohub,2013-03-19 15:42:00,
2013-03-19 11:47:00,37.9,36.1,29.68,NE,44,6.0,17.0,93,0.00,,,0.59,104.0,meteohub,2013-03-19 15:47:00,
2013-03-19 11:52:00,37.9,35.8,29.69,NE,34,11.0,12.0,92,0.00,,,0.59,83.0,meteohub,2013-03-19 15:52:00,
2013-03-19 11:57:00,37.9,36.1,29.68,ENE,58,8.0,14.0,93,0.00,,,0.59,109.0,meteohub,2013-03-19 15:57:00,
2013-03-19 12:02:00,37.9,35.8,29.68,NNE,30,9.0,14.0,92,0.00,,,0.59,95.0,meteohub,2013-03-19 16:02:00,
2013-03-19 12:07:00,38.1,36.3,29.68,ENE,70,6.0,14.0,93,0.00,,,0.59,63.0,meteohub,2013-03-19 16:07:00,
2013-03-19 12:12:00,38.1,36.0,29.68,NNE,25,6.0,13.0,92,0.00,,,0.59,44.0,meteohub,2013-03-19 16:12:00,
2013-03-19 12:17:00,38.1,36.0,29.68,NNE,22,4.0,10.0,92,0.00,,,0.59,81.0,meteohub,2013-03-19 16:17:00,
2013-03-19 12:22:00,38.1,36.3,29.67,ENE,57,7.0,13.0,93,0.00,,,0.59,107.0,meteohub,2013-03-19 16:22:00,
2013-03-19 12:28:00,38.3,36.1,29.67,NNE,13,5.0,13.0,92,0.01,,,0.60,67.0,meteohub,2013-03-19 16:28:00,
2013-03-19 12:33:00,38.3,36.1,29.67,NNE,29,6.0,13.0,92,0.02,,,0.61,93.0,meteohub,2013-03-19 16:33:00,
2013-03-19 12:38:00,38.5,36.7,29.68,NNW,329,4.0,11.0,93,0.02,,,0.61,69.0,meteohub,2013-03-19 16:38:00,
2013-03-19 12:43:00,38.5,36.3,29.70,NW,304,11.0,11.0,92,0.02,,,0.61,25.0,meteohub,2013-03-19 16:43:00,
2013-03-19 12:48:00,38.1,36.0,29.71,NNW,329,12.0,12.0,92,0.02,,,0.61,39.0,meteohub,2013-03-19 16:48:00,
2013-03-19 12:53:00,37.9,35.8,29.71,North,350,6.0,14.0,92,0.03,,,0.62,44.0,meteohub,2013-03-19 16:53:00,
2013-03-19 12:59:00,37.8,35.6,29.73,West,281,9.0,17.0,92,0.06,,,0.65,26.0,meteohub,2013-03-19 16:59:00,
2013-03-19 13:04:00,37.6,35.4,29.72,NNW,345,9.0,17.0,92,0.07,,,0.66,72.0,meteohub,2013-03-19 17:04:00,
2013-03-19 13:09:00,37.8,36.0,29.70,North,5,12.0,19.0,93,0.08,,,0.67,209.0,meteohub,2013-03-19 17:09:00,
2013-03-19 13:14:00,38.1,36.3,29.69,North,349,12.0,19.0,93,0.09,,,0.68,387.0,meteohub,2013-03-19 17:14:00,
2013-03-19 13:19:00,39.4,37.8,29.69,North,5,7.0,17.0,94,0.09,,,0.68,297.0,meteohub,2013-03-19 17:19:00,
2013-03-19 13:24:00,39.4,37.6,29.69,North,0,4.0,17.0,93,0.08,,,0.68,130.0,meteohub,2013-03-19 17:24:00,
2013-03-19 13:29:00,39.0,37.2,29.69,NNW,337,7.0,17.0,93,0.08,,,0.68,70.0,meteohub,2013-03-19 17:29:00,
2013-03-19 13:34:00,38.7,36.9,29.70,WNW,299,11.0,17.0,93,0.07,,,0.68,51.0,meteohub,2013-03-19 17:34:00,
2013-03-19 13:40:00,38.5,36.7,29.70,NNE,31,12.0,16.0,93,0.07,,,0.68,83.0,meteohub,2013-03-19 17:40:00,
2013-03-19 13:45:00,38.1,36.3,29.69,North,10,9.0,16.0,93,0.07,,,0.68,84.0,meteohub,2013-03-19 17:45:00,
2013-03-19 13:50:00,38.1,36.3,29.69,North,9,12.0,17.0,93,0.07,,,0.69,74.0,meteohub,2013-03-19 17:50:00,
2013-03-19 13:55:00,37.9,36.1,29.67,NE,52,4.0,17.0,93,0.04,,,0.69,81.0,meteohub,2013-03-19 17:55:00,
2013-03-19 14:00:00,37.8,36.0,29.65,NE,48,13.0,15.0,93,0.04,,,0.70,91.0,meteohub,2013-03-19 18:00:00,
2013-03-19 14:05:00,37.8,36.0,29.64,NNE,12,12.0,19.0,93,0.03,,,0.70,98.0,meteohub,2013-03-19 18:05:00,
2013-03-19 14:10:00,37.9,36.1,29.63,NNE,14,8.0,19.0,93,0.02,,,0.70,132.0,meteohub,2013-03-19 18:10:00,
2013-03-19 14:15:00,37.9,36.1,29.63,NE,48,5.0,19.0,93,0.02,,,0.70,148.0,meteohub,2013-03-19 18:15:00,
2013-03-19 14:21:00,37.9,36.1,29.62,NNE,21,8.0,19.0,93,0.02,,,0.70,341.0,meteohub,2013-03-19 18:21:00,
2013-03-19 14:26:00,39.9,38.7,29.62,North,355,10.0,18.0,95,0.02,,,0.70,501.0,meteohub,2013-03-19 18:26:00,
2013-03-19 14:31:00,40.8,39.6,29.63,NNW,331,13.0,18.0,95,0.02,,,0.70,501.0,meteohub,2013-03-19 18:31:00,
2013-03-19 14:36:00,40.8,39.2,29.63,North,10,7.0,18.0,94,0.02,,,0.70,462.0,meteohub,2013-03-19 18:36:00,
2013-03-19 14:41:00,41.5,40.3,29.63,North,349,7.0,19.0,95,0.02,,,0.70,768.0,meteohub,2013-03-19 18:41:00,
2013-03-19 14:46:00,42.8,41.5,29.63,North,355,13.0,19.0,95,0.01,,,0.70,352.0,meteohub,2013-03-19 18:46:00,
2013-03-19 14:52:00,42.4,40.6,29.62,NE,38,10.0,19.0,93,0.01,,,0.70,316.0,meteohub,2013-03-19 18:52:00,
2013-03-19 14:57:00,42.8,40.6,29.62,North,355,12.0,20.0,92,0.01,,,0.70,705.0,meteohub,2013-03-19 18:57:00,
2013-03-19 15:02:00,43.3,40.3,29.62,North,5,9.0,20.0,89,0.00,,,0.70,661.0,meteohub,2013-03-19 19:02:00,
2013-03-19 15:07:00,43.9,40.3,29.62,North,9,10.0,20.0,87,0.00,,,0.70,810.0,meteohub,2013-03-19 19:07:00,
2013-03-19 15:12:00,44.2,40.1,29.62,North,350,16.0,19.0,85,0.00,,,0.70,687.0,meteohub,2013-03-19 19:12:00,
2013-03-19 15:17:00,44.1,39.6,29.63,North,355,8.0,18.0,84,0.00,,,0.70,313.0,meteohub,2013-03-19 19:17:00,
2013-03-19 15:22:00,43.5,38.5,29.63,North,9,14.0,18.0,82,0.00,,,0.70,267.0,meteohub,2013-03-19 19:22:00,
2013-03-19 15:27:00,42.8,37.8,29.63,North,0,8.0,20.0,82,0.00,,,0.70,271.0,meteohub,2013-03-19 19:27:00,
2013-03-19 15:32:00,42.4,37.4,29.63,NE,39,7.0,20.0,82,0.00,,,0.70,264.0,meteohub,2013-03-19 19:32:00,
2013-03-19 15:38:00,42.1,37.0,29.63,North,9,7.0,20.0,82,0.00,,,0.70,316.0,meteohub,2013-03-19 19:38:00,
2013-03-19 15:43:00,42.3,37.4,29.62,North,349,13.0,22.0,83,0.00,,,0.70,309.0,meteohub,2013-03-19 19:43:00,
2013-03-19 15:48:00,42.3,37.4,29.62,NNE,13,12.0,22.0,83,0.00,,,0.70,322.0,meteohub,2013-03-19 19:48:00,
2013-03-19 15:53:00,42.1,37.0,29.62,North,0,11.0,21.0,82,0.00,,,0.70,241.0,meteohub,2013-03-19 19:53:00,
2013-03-19 15:58:00,41.7,36.7,29.62,North,0,9.0,21.0,82,0.00,,,0.70,218.0,meteohub,2013-03-19 19:58:00,
2013-03-19 16:03:00,41.7,36.7,29.61,NNE,17,9.0,21.0,82,0.00,,,0.70,207.0,meteohub,2013-03-19 20:03:00,
2013-03-19 16:08:00,41.5,36.5,29.62,North,350,6.0,20.0,82,0.00,,,0.70,148.0,meteohub,2013-03-19 20:08:00,
2013-03-19 16:13:00,41.5,36.5,29.63,North,5,9.0,20.0,82,0.00,,,0.70,155.0,meteohub,2013-03-19 20:13:00,
2013-03-19 16:18:00,41.4,36.3,29.63,North,9,6.0,20.0,82,0.00,,,0.70,130.0,meteohub,2013-03-19 20:18:00,
2013-03-19 16:23:00,41.2,36.1,29.64,North,350,11.0,19.0,82,0.00,,,0.70,107.0,meteohub,2013-03-19 20:23:00,
2013-03-19 16:29:00,40.8,36.1,29.65,NNW,344,8.0,19.0,83,0.00,,,0.70,104.0,meteohub,2013-03-19 20:29:00,
2013-03-19 16:34:00,40.6,35.6,29.65,North,5,7.0,19.0,82,0.00,,,0.70,102.0,meteohub,2013-03-19 20:34:00,
2013-03-19 16:39:00,40.6,36.0,29.65,NNW,338,11.0,19.0,83,0.00,,,0.70,107.0,meteohub,2013-03-19 20:39:00,
2013-03-19 16:44:00,40.6,36.1,29.65,WNW,285,11.0,17.0,84,0.00,,,0.70,107.0,meteohub,2013-03-19 20:44:00,
2013-03-19 16:49:00,40.5,36.3,29.66,North,355,6.0,18.0,85,0.00,,,0.70,74.0,meteohub,2013-03-19 20:49:00,
2013-03-19 16:54:00,40.3,36.5,29.66,NW,315,7.0,18.0,86,0.00,,,0.70,70.0,meteohub,2013-03-19 20:54:00,
2013-03-19 16:59:00,39.7,36.1,29.66,NW,311,11.0,18.0,87,0.00,,,0.70,81.0,meteohub,2013-03-19 20:59:00,
2013-03-19 17:04:00,39.6,36.3,29.66,NW,308,7.0,15.0,88,0.00,,,0.70,79.0,meteohub,2013-03-19 21:04:00,
2013-03-19 17:09:00,39.4,36.1,29.66,NNW,347,7.0,15.0,88,0.00,,,0.70,69.0,meteohub,2013-03-19 21:09:00,
2013-03-19 17:14:00,39.4,36.5,29.66,North,351,6.0,15.0,89,0.00,,,0.70,54.0,meteohub,2013-03-19 21:14:00,
2013-03-19 17:19:00,39.0,36.1,29.67,NNW,329,5.0,12.0,89,0.00,,,0.70,47.0,meteohub,2013-03-19 21:19:00,
2013-03-19 17:24:00,38.8,36.0,29.67,WNW,286,13.0,13.0,89,0.00,,,0.70,69.0,meteohub,2013-03-19 21:24:00,
2013-03-19 17:29:00,38.5,35.6,29.68,NW,320,7.0,13.0,89,0.00,,,0.70,79.0,meteohub,2013-03-19 21:29:00,
2013-03-19 17:34:00,38.5,35.8,29.67,NW,312,5.0,15.0,90,0.00,,,0.70,149.0,meteohub,2013-03-19 21:34:00,
2013-03-19 17:39:00,38.7,36.0,29.67,North,5,6.0,15.0,90,0.00,,,0.70,134.0,meteohub,2013-03-19 21:39:00,
2013-03-19 17:45:00,38.8,36.1,29.67,NW,325,10.0,18.0,90,0.00,,,0.70,148.0,meteohub,2013-03-19 21:45:00,
2013-03-19 17:50:00,39.0,36.3,29.67,North,11,12.0,18.0,90,0.00,,,0.70,88.0,meteohub,2013-03-19 21:50:00,
2013-03-19 17:55:00,39.2,36.3,29.67,North,11,7.0,18.0,89,0.00,,,0.70,220.0,meteohub,2013-03-19 21:55:00,
2013-03-19 18:00:00,39.4,36.5,29.67,NNW,344,7.0,17.0,89,0.00,,,0.70,102.0,meteohub,2013-03-19 22:00:00,
2013-03-19 18:05:00,39.2,36.0,29.68,NNW,338,12.0,17.0,88,0.00,,,0.70,114.0,meteohub,2013-03-19 22:05:00,
2013-03-19 18:10:00,39.4,36.1,29.68,North,350,9.0,14.0,88,0.00,,,0.70,105.0,meteohub,2013-03-19 22:10:00,
2013-03-19 18:15:00,39.4,35.8,29.68,NNW,330,1.0,14.0,87,0.00,,,0.70,95.0,meteohub,2013-03-19 22:15:00,
2013-03-19 18:20:00,39.4,35.8,29.67,NNE,14,5.0,13.0,87,0.00,,,0.70,35.0,meteohub,2013-03-19 22:20:00,
2013-03-19 18:25:00,39.0,35.2,29.66,NNE,14,6.0,11.0,86,0.00,,,0.70,28.0,meteohub,2013-03-19 22:25:00,
2013-03-19 18:30:00,38.7,34.9,29.68,NW,319,6.0,15.0,86,0.00,,,0.70,28.0,meteohub,2013-03-19 22:30:00,
2013-03-19 18:35:00,38.5,34.7,29.69,NW,309,7.0,15.0,86,0.00,,,0.70,21.0,meteohub,2013-03-19 22:35:00,
2013-03-19 18:40:00,37.9,34.2,29.68,NW,321,1.0,15.0,86,0.00,,,0.70,12.0,meteohub,2013-03-19 22:40:00,
2013-03-19 18:46:00,37.9,34.2,29.68,NNW,330,6.0,9.0,86,0.00,,,0.70,12.0,meteohub,2013-03-19 22:46:00,
2013-03-19 18:50:00,37.9,34.2,29.68,NNW,348,4.0,9.0,86,0.00,,,0.70,9.0,meteohub,2013-03-19 22:50:00,
2013-03-19 18:56:00,37.9,34.3,29.68,NW,319,4.0,9.0,87,0.00,,,0.70,5.0,meteohub,2013-03-19 22:56:00,
2013-03-19 19:01:00,37.9,34.3,29.69,NW,311,5.0,10.0,87,0.00,,,0.70,0.0,meteohub,2013-03-19 23:01:00,
2013-03-19 19:06:00,37.9,34.2,29.69,NNW,346,6.0,10.0,86,0.00,,,0.70,0.0,meteohub,2013-03-19 23:06:00,
2013-03-19 19:11:00,37.8,34.0,29.69,NNW,333,6.0,10.0,86,0.00,,,0.70,0.0,meteohub,2013-03-19 23:11:00,
2013-03-19 19:16:00,37.8,34.2,29.70,NW,313,4.0,9.0,87,0.00,,,0.70,0.0,meteohub,2013-03-19 23:16:00,
2013-03-19 19:21:00,37.8,34.2,29.70,WNW,302,6.0,9.0,87,0.00,,,0.70,0.0,meteohub,2013-03-19 23:21:00,
2013-03-19 19:26:00,37.6,34.0,29.70,NNW,328,2.0,9.0,87,0.00,,,0.70,0.0,meteohub,2013-03-19 23:26:00,
2013-03-19 19:32:00,37.6,34.0,29.70,NW,315,4.0,9.0,87,0.00,,,0.70,0.0,meteohub,2013-03-19 23:32:00,
2013-03-19 19:37:00,37.2,33.8,29.71,WNW,302,4.0,9.0,87,0.00,,,0.70,0.0,meteohub,2013-03-19 23:37:00,
2013-03-19 19:42:00,37.0,33.6,29.71,NW,304,0.0,7.0,87,0.00,,,0.70,0.0,meteohub,2013-03-19 23:42:00,
2013-03-19 19:47:00,37.0,33.6,29.71,NW,307,0.0,7.0,87,0.00,,,0.70,0.0,meteohub,2013-03-19 23:47:00,
2013-03-19 19:52:00,36.9,33.4,29.71,NW,307,0.0,6.0,87,0.00,,,0.70,0.0,meteohub,2013-03-19 23:52:00,
2013-03-19 19:57:00,36.7,33.3,29.71,NW,307,0.0,6.0,87,0.00,,,0.70,0.0,meteohub,2013-03-19 23:57:00,
2013-03-19 20:02:00,36.3,32.9,29.71,NW,307,0.0,5.0,87,0.00,,,0.70,0.0,meteohub,2013-03-20 00:02:00,
2013-03-19 20:07:00,36.1,32.7,29.72,NW,307,0.0,4.0,87,0.00,,,0.00,0.0,meteohub,2013-03-20 00:07:00,
2013-03-19 20:12:00,36.0,32.7,29.72,NW,307,0.0,4.0,88,0.00,,,0.00,0.0,meteohub,2013-03-20 00:12:00,
2013-03-19 20:17:00,35.8,32.5,29.72,NW,307,0.0,4.0,88,0.00,,,0.00,0.0,meteohub,2013-03-20 00:17:00,
2013-03-19 20:22:00,35.2,32.0,29.72,NW,307,1.0,4.0,88,0.00,,,0.00,0.0,meteohub,2013-03-20 00:22:00,
2013-03-19 20:27:00,35.1,32.2,29.72,NW,307,1.0,4.0,89,0.00,,,0.00,0.0,meteohub,2013-03-20 00:27:00,
2013-03-19 20:33:00,35.2,32.4,29.72,NW,306,5.0,5.0,89,0.00,,,0.00,0.0,meteohub,2013-03-20 00:33:00,
2013-03-19 20:38:00,35.2,32.4,29.73,NW,306,2.0,6.0,89,0.00,,,0.00,0.0,meteohub,2013-03-20 00:38:00,
2013-03-19 20:43:00,35.2,32.5,29.73,WNW,287,5.0,6.0,90,0.00,,,0.00,0.0,meteohub,2013-03-20 00:43:00,
2013-03-19 20:48:00,35.4,32.7,29.72,WNW,286,0.0,7.0,90,0.00,,,0.00,0.0,meteohub,2013-03-20 00:48:00,
2013-03-19 20:53:00,35.6,32.9,29.72,WNW,294,0.0,7.0,90,0.00,,,0.00,0.0,meteohub,2013-03-20 00:53:00,
2013-03-19 20:58:00,35.8,33.1,29.72,WNW,290,2.0,5.0,90,0.00,,,0.00,0.0,meteohub,2013-03-20 00:58:00,
2013-03-19 21:03:00,36.0,33.3,29.72,WNW,290,0.0,6.0,90,0.00,,,0.00,0.0,meteohub,2013-03-20 01:03:00,
2013-03-19 21:08:00,35.8,32.9,29.72,WNW,290,0.0,6.0,89,0.00,,,0.00,0.0,meteohub,2013-03-20 01:08:00,
2013-03-19 21:14:00,35.4,32.5,29.72,WNW,290,0.0,6.0,89,0.00,,,0.00,0.0,meteohub,2013-03-20 01:14:00,
2013-03-19 21:19:00,35.1,32.4,29.72,WNW,290,4.0,5.0,90,0.00,,,0.00,0.0,meteohub,2013-03-20 01:19:00,
2013-03-19 21:24:00,34.9,32.2,29.72,WNW,294,4.0,4.0,90,0.00,,,0.00,0.0,meteohub,2013-03-20 01:24:00,
2013-03-19 21:29:00,34.9,32.2,29.72,NNW,333,2.0,5.0,90,0.00,,,0.00,0.0,meteohub,2013-03-20 01:29:00,
2013-03-19 21:34:00,35.2,32.9,29.72,North,350,2.0,5.0,91,0.00,,,0.00,0.0,meteohub,2013-03-20 01:34:00,
2013-03-19 21:39:00,35.2,32.9,29.72,NNW,345,4.0,9.0,91,0.00,,,0.00,0.0,meteohub,2013-03-20 01:39:00,
2013-03-19 21:44:00,35.4,33.1,29.73,NW,308,5.0,9.0,91,0.00,,,0.00,0.0,meteohub,2013-03-20 01:44:00,
2013-03-19 21:49:00,35.8,33.4,29.73,NW,308,6.0,11.0,91,0.00,,,0.00,0.0,meteohub,2013-03-20 01:49:00,
2013-03-19 21:54:00,36.1,33.8,29.73,NW,311,8.0,13.0,91,0.00,,,0.00,0.0,meteohub,2013-03-20 01:54:00,
2013-03-19 21:59:00,36.5,33.8,29.72,NW,312,11.0,13.0,90,0.00,,,0.00,0.0,meteohub,2013-03-20 01:59:00,
2013-03-19 22:04:00,36.7,34.0,29.73,WNW,298,7.0,13.0,90,0.00,,,0.00,0.0,meteohub,2013-03-20 02:04:00,
2013-03-19 22:10:00,36.9,34.0,29.72,WNW,302,4.0,13.0,89,0.00,,,0.00,0.0,meteohub,2013-03-20 02:10:00,
2013-03-19 22:15:00,36.9,34.0,29.72,NW,313,0.0,13.0,89,0.00,,,0.00,0.0,meteohub,2013-03-20 02:15:00,
2013-03-19 22:20:00,36.7,33.8,29.72,WNW,298,5.0,13.0,89,0.00,,,0.00,0.0,meteohub,2013-03-20 02:20:00,
2013-03-19 22:25:00,36.7,33.4,29.73,WSW,257,3.0,13.0,88,0.00,,,0.00,0.0,meteohub,2013-03-20 02:25:00,
2013-03-19 22:30:00,36.5,33.3,29.73,WSW,244,4.0,11.0,88,0.00,,,0.00,0.0,meteohub,2013-03-20 02:30:00,
2013-03-19 22:35:00,36.3,33.1,29.73,West,268,3.0,11.0,88,0.00,,,0.00,0.0,meteohub,2013-03-20 02:35:00,
2013-03-19 22:40:00,36.1,32.9,29.73,WNW,286,4.0,10.0,88,0.00,,,0.00,0.0,meteohub,2013-03-20 02:40:00,
2013-03-19 22:45:00,36.1,32.9,29.73,NW,310,9.0,9.0,88,0.00,,,0.00,0.0,meteohub,2013-03-20 02:45:00,
2013-03-19 22:50:00,36.0,32.7,29.73,West,269,0.0,9.0,88,0.00,,,0.00,0.0,meteohub,2013-03-20 02:50:00,
2013-03-19 22:55:00,36.0,32.7,29.73,West,280,4.0,9.0,88,0.00,,,0.00,0.0,meteohub,2013-03-20 02:55:00,
2013-03-19 23:01:00,35.8,32.5,29.73,WNW,286,2.0,9.0,88,0.00,,,0.00,0.0,meteohub,2013-03-20 03:01:00,
2013-03-19 23:06:00,35.6,32.4,29.72,WNW,292,2.0,8.0,88,0.00,,,0.00,0.0,meteohub,2013-03-20 03:06:00,
2013-03-19 23:11:00,35.4,32.5,29.73,WSW,256,3.0,9.0,89,0.00,,,0.00,0.0,meteohub,2013-03-20 03:11:00,
2013-03-19 23:16:00,35.2,32.4,29.73,West,271,2.0,9.0,89,0.00,,,0.00,0.0,meteohub,2013-03-20 03:16:00,
2013-03-19 23:21:00,35.2,32.4,29.74,WNW,289,5.0,9.0,89,0.00,,,0.00,0.0,meteohub,2013-03-20 03:21:00,
2013-03-19 23:26:00,35.2,32.4,29.74,WNW,301,4.0,9.0,89,0.00,,,0.00,0.0,meteohub,2013-03-20 03:26:00,
2013-03-19 23:32:00,35.4,32.5,29.74,NW,317,7.0,9.0,89,0.00,,,0.00,0.0,meteohub,2013-03-20 03:32:00,
2013-03-19 23:37:00,35.4,32.5,29.73,NNW,346,4.0,8.0,89,0.00,,,0.00,0.0,meteohub,2013-03-20 03:37:00,
2013-03-19 23:42:00,35.4,32.5,29.73,NW,306,7.0,8.0,89,0.00,,,0.00,0.0,meteohub,2013-03-20 03:42:00,
2013-03-19 23:47:00,35.4,32.5,29.73,North,355,6.0,12.0,89,0.00,,,0.00,0.0,meteohub,2013-03-20 03:47:00,
2013-03-19 23:52:00,35.4,32.5,29.73,NW,323,6.0,12.0,89,0.00,,,0.00,0.0,meteohub,2013-03-20 03:52:00,
2013-03-19 23:57:00,35.4,32.5,29.72,WNW,302,6.0,12.0,89,0.00,,,0.00,0.0,meteohub,2013-03-20 03:57:00,